createdAt,value
2018-04-02T17:37:24.943Z,16.07
2018-04-02T17:38:33.877Z,15.94
2018-04-02T17:39:42.815Z,15.96
2018-04-02T17:40:52.046Z,15.92
2018-04-02T17:42:00.987Z,15.92
2018-04-02T17:43:09.659Z,15.93
2018-04-02T17:44:19.152Z,15.87
2018-04-02T17:45:28.363Z,15.89
2018-04-02T17:46:37.577Z,15.9
2018-04-02T17:47:46.781Z,15.86
2018-04-02T17:48:55.992Z,15.82
2018-04-02T17:50:04.940Z,15.89
2018-04-02T17:51:14.425Z,16
2018-04-02T17:52:23.636Z,16.02
2018-04-02T17:53:32.851Z,15.93
2018-04-02T17:54:42.071Z,16.04
2018-04-02T17:55:51.018Z,16.11
2018-04-02T17:57:00.229Z,16.11
2018-04-02T17:58:09.175Z,16.2
2018-04-02T17:59:18.934Z,16.24
2018-04-02T18:00:27.876Z,16.34
2018-04-02T18:01:36.552Z,16.33
2018-04-02T18:02:45.230Z,16.42
2018-04-02T18:03:54.262Z,16.41
2018-04-02T18:05:03.505Z,16.49
2018-04-02T18:06:12.179Z,16.52
2018-04-02T18:07:21.391Z,16.49
2018-04-02T18:08:30.881Z,16.52
2018-04-02T18:09:39.825Z,16.42
2018-04-02T18:10:48.503Z,16.28
2018-04-02T18:11:57.728Z,16.27
2018-04-02T18:13:06.672Z,16.23
2018-04-02T18:14:15.625Z,16.28
2018-04-02T18:15:25.112Z,16.35
2018-04-02T18:16:33.786Z,16.25
2018-04-02T18:17:42.463Z,16.46
2018-04-02T18:18:51.941Z,16.53
2018-04-02T18:20:00.614Z,16.46
2018-04-02T18:21:09.561Z,16.53
2018-04-02T18:22:18.507Z,16.58
2018-04-02T18:23:27.457Z,16.73
2018-04-02T18:24:36.927Z,16.73
2018-04-02T18:25:46.140Z,16.73
2018-04-02T18:26:54.820Z,16.82
2018-04-02T18:28:04.059Z,16.79
2018-04-02T18:29:13.267Z,16.89
2018-04-02T18:30:22.020Z,16.91
2018-04-02T18:31:31.226Z,16.98
2018-04-02T18:32:40.222Z,16.93
2018-04-02T18:33:49.433Z,17.07
2018-04-02T18:34:58.913Z,17.08
2018-04-02T18:36:07.858Z,17.12
2018-04-02T18:37:16.805Z,17.16
2018-04-02T18:38:26.136Z,17.21
2018-04-02T18:39:35.077Z,17.19
2018-04-02T18:40:44.018Z,17.28
2018-04-02T18:41:52.968Z,17.25
2018-04-02T18:43:02.180Z,17.23
2018-04-02T18:44:11.926Z,17.33
2018-04-02T18:45:21.410Z,17.44
2018-04-02T18:46:30.357Z,17.4
2018-04-02T18:47:39.929Z,17.4
2018-04-02T18:48:49.211Z,17.48
2018-04-02T18:49:58.424Z,17.56
2018-04-02T18:51:07.684Z,17.55
2018-04-02T18:52:16.900Z,17.52
2018-04-02T18:53:25.934Z,17.68
2018-04-02T18:54:34.917Z,17.71
2018-04-02T18:55:43.800Z,17.7
2018-04-02T18:56:53.135Z,17.77
2018-04-02T18:58:02.662Z,17.84
2018-04-02T18:59:12.479Z,17.82
2018-04-02T19:00:21.568Z,17.86
2018-04-02T19:01:30.621Z,17.82
2018-04-02T19:02:39.627Z,17.97
2018-04-02T19:03:48.689Z,17.92
2018-04-02T19:04:58.065Z,17.96
2018-04-02T19:06:07.357Z,18.1
2018-04-02T19:07:16.662Z,18.02
2018-04-02T19:08:25.984Z,18.03
2018-04-02T19:09:35.069Z,18.08
2018-04-02T19:10:44.131Z,18.03
2018-04-02T19:11:53.635Z,18.02
2018-04-02T19:13:02.747Z,18.02
2018-04-02T19:14:12.034Z,18.12
2018-04-02T19:15:21.525Z,18.1
2018-04-02T19:16:30.468Z,18.1
2018-04-02T19:17:39.206Z,18.17
2018-04-02T19:18:48.257Z,18.15
2018-04-02T19:19:57.575Z,18.17
2018-04-02T19:21:06.957Z,18.2
2018-04-02T19:22:15.734Z,18.17
2018-04-02T19:23:25.057Z,18.17
2018-04-02T19:24:34.329Z,18.2
2018-04-02T19:25:43.815Z,18.21
2018-04-02T19:26:53.387Z,18.37
2018-04-02T19:28:02.437Z,18.39
2018-04-02T19:29:11.298Z,18.32
2018-04-02T19:30:20.541Z,18.33
2018-04-02T19:31:29.758Z,18.39
2018-04-02T19:32:38.435Z,18.35
2018-04-02T19:33:47.648Z,18.29
2018-04-02T19:34:57.129Z,18.25
2018-04-02T19:36:06.610Z,18.25
2018-04-02T19:37:15.830Z,18.32
2018-04-02T19:38:24.784Z,18.35
2018-04-02T19:39:33.736Z,18.29
2018-04-02T19:40:44.012Z,18.37
2018-04-02T19:41:53.772Z,18.36
2018-04-02T19:43:02.721Z,18.44
2018-04-02T19:44:11.666Z,18.39
2018-04-02T19:45:21.692Z,18.45
2018-04-02T19:46:30.639Z,18.35
2018-04-02T19:47:39.852Z,18.45
2018-04-02T19:48:49.067Z,18.47
2018-04-02T19:49:58.275Z,18.47
2018-04-02T19:51:07.486Z,18.48
2018-04-02T19:52:16.438Z,18.45
2018-04-02T19:53:25.386Z,18.41
2018-04-02T19:54:34.062Z,18.42
2018-04-02T19:55:43.544Z,18.51
2018-04-02T19:56:52.768Z,18.47
2018-04-02T19:58:01.710Z,18.47
2018-04-02T19:59:10.922Z,18.48
2018-04-02T20:00:19.869Z,18.51
2018-04-02T20:01:28.816Z,18.47
2018-04-02T20:02:38.294Z,18.42
2018-04-02T20:03:47.506Z,18.42
2018-04-02T20:04:56.717Z,18.52
2018-04-02T20:06:05.933Z,18.54
2018-04-02T20:07:15.408Z,18.6
2018-04-02T20:08:24.621Z,18.6
2018-04-02T20:09:33.839Z,18.52
2018-04-02T20:10:43.322Z,18.57
2018-04-02T20:11:52.271Z,18.54
2018-04-02T20:13:01.781Z,18.47
2018-04-02T20:14:10.730Z,18.52
2018-04-02T20:15:19.676Z,18.5
2018-04-02T20:16:29.422Z,18.52
2018-04-02T20:17:38.637Z,18.54
2018-04-02T20:18:47.849Z,18.55
2018-04-02T20:19:56.798Z,18.5
2018-04-02T20:21:05.476Z,18.62
2018-04-02T20:22:14.422Z,18.62
2018-04-02T20:23:23.368Z,18.54
2018-04-02T20:24:32.590Z,18.55
2018-04-02T20:25:41.535Z,18.62
2018-04-02T20:26:51.017Z,18.62
2018-04-02T20:28:00.503Z,18.6
2018-04-02T20:29:09.716Z,18.62
2018-04-02T20:30:18.392Z,18.66
2018-04-02T20:31:27.606Z,18.66
2018-04-02T20:32:36.553Z,18.67
2018-04-02T20:33:45.500Z,18.66
2018-04-02T20:34:54.736Z,18.65
2018-04-02T20:36:04.256Z,18.65
2018-04-02T20:37:12.936Z,18.63
2018-04-02T20:38:21.892Z,18.66
2018-04-02T20:39:31.634Z,18.67
2018-04-02T20:40:40.580Z,18.67
2018-04-02T20:41:50.065Z,18.66
2018-04-02T20:42:59.015Z,18.69
2018-04-02T20:44:07.698Z,18.69
2018-04-02T20:45:16.642Z,18.67
2018-04-02T20:46:25.588Z,18.67
2018-04-02T20:47:35.082Z,18.73
2018-04-02T20:48:44.828Z,18.75
2018-04-02T20:49:54.660Z,18.67
2018-04-02T20:51:04.142Z,18.69
2018-04-02T20:52:12.833Z,18.73
2018-04-02T20:53:22.325Z,18.73
2018-04-02T20:54:31.539Z,18.73
2018-04-02T20:55:40.531Z,18.67
2018-04-02T20:56:49.747Z,18.69
2018-04-02T20:57:59.763Z,18.73
2018-04-02T20:59:08.973Z,18.7
2018-04-02T21:00:18.709Z,18.73
2018-04-02T21:01:27.928Z,18.7
2018-04-02T21:02:37.147Z,18.72
2018-04-02T21:03:46.633Z,18.67
2018-04-02T21:04:55.312Z,18.66
2018-04-02T21:06:04.800Z,18.69
2018-04-02T21:07:14.013Z,18.66
2018-04-02T21:08:23.254Z,18.69
2018-04-02T21:09:32.205Z,18.69
2018-04-02T21:10:40.882Z,18.72
2018-04-02T21:11:49.832Z,18.66
2018-04-02T21:12:58.520Z,18.73
2018-04-02T21:14:07.749Z,18.67
2018-04-02T21:15:16.693Z,18.76
2018-04-02T21:16:25.907Z,18.67
2018-04-02T21:17:35.652Z,18.67
2018-04-02T21:18:44.605Z,18.67
2018-04-02T21:19:54.086Z,18.7
2018-04-02T21:21:03.316Z,18.69
2018-04-02T21:22:12.799Z,18.7
2018-04-02T21:23:21.480Z,18.73
2018-04-02T21:24:30.427Z,18.73
2018-04-02T21:25:39.376Z,18.76
2018-04-02T21:26:48.327Z,18.75
2018-04-02T21:27:57.812Z,18.75
2018-04-02T21:29:07.020Z,18.73
2018-04-02T21:30:16.236Z,18.72
2018-04-02T21:31:25.711Z,18.7
2018-04-02T21:32:34.661Z,18.73
2018-04-02T21:33:43.341Z,18.73
2018-04-02T21:34:52.285Z,18.73
2018-04-02T21:36:00.969Z,18.67
2018-04-02T21:37:10.195Z,18.73
2018-04-02T21:38:19.683Z,18.69
2018-04-02T21:39:29.161Z,18.69
2018-04-02T21:40:38.376Z,18.75
2018-04-02T21:41:47.587Z,18.72
2018-04-02T21:42:56.279Z,18.7
2018-04-02T21:44:05.214Z,18.69
2018-04-02T21:45:14.160Z,18.67
2018-04-02T21:46:23.108Z,18.75
2018-04-02T21:47:32.605Z,18.75
2018-04-02T21:48:41.354Z,18.75
2018-04-02T21:49:50.031Z,18.78
2018-04-02T21:50:58.976Z,18.76
2018-04-02T21:52:07.651Z,18.69
2018-04-02T21:53:16.875Z,18.67
2018-04-02T21:54:25.819Z,18.67
2018-04-02T21:55:34.503Z,18.75
2018-04-02T21:56:43.449Z,18.76
2018-04-02T21:57:52.692Z,18.69
2018-04-02T21:59:01.611Z,18.75
2018-04-02T22:00:10.563Z,18.75
2018-04-02T22:01:19.250Z,18.7
2018-04-02T22:02:28.473Z,18.73
2018-04-02T22:03:37.481Z,18.73
2018-04-02T22:04:46.428Z,18.67
2018-04-02T22:05:55.379Z,18.69
2018-04-02T22:07:04.595Z,18.73
2018-04-02T22:08:13.536Z,18.73
2018-04-02T22:09:23.282Z,18.69
2018-04-02T22:10:31.961Z,18.72
2018-04-02T22:11:40.911Z,18.73
2018-04-02T22:12:50.389Z,18.7
2018-04-02T22:13:59.605Z,18.66
2018-04-02T22:15:10.271Z,18.65
